sensor_id;sensor_type;location;lat;lon;timestamp;pressure;altitude;pressure_sealevel;temperature;humidity
24762;BME280;12865;51.934;10.330;2023-05-23T00:00:13;98887.25;;;15.81;100.00
24762;BME280;12865;51.934;10.330;2023-05-23T00:02:59;98877.50;;;15.80;100.00
24762;BME280;12865;51.934;10.330;2023-05-23T00:05:45;98879.84;;;15.83;100.00
24762;BME280;12865;51.934;10.330;2023-05-23T00:08:32;98876.59;;;15.87;100.00
24762;BME280;12865;51.934;10.330;2023-05-23T00:11:17;98883.47;;;15.90;100.00
24762;BME280;12865;51.934;10.330;2023-05-23T00:14:04;98885.16;;;15.91;100.00
24762;BME280;12865;51.934;10.330;2023-05-23T00:16:52;98875.31;;;15.83;100.00
24762;BME280;12865;51.934;10.330;2023-05-23T00:19:39;98870.78;;;15.84;100.00
24762;BME280;12865;51.934;10.330;2023-05-23T00:22:25;98868.16;;;15.76;100.00
24762;BME280;12865;51.934;10.330;2023-05-23T00:25:11;98861.44;;;15.71;100.00
24762;BME280;12865;51.934;10.330;2023-05-23T00:27:57;98858.47;;;15.66;100.00
24762;BME280;12865;51.934;10.330;2023-05-23T00:30:42;98864.59;;;15.60;100.00
24762;BME280;12865;51.934;10.330;2023-05-23T00:33:28;98868.56;;;15.64;100.00
24762;BME280;12865;51.934;10.330;2023-05-23T00:36:17;98868.94;;;15.61;100.00
24762;BME280;12865;51.934;10.330;2023-05-23T00:39:03;98873.78;;;15.66;100.00
24762;BME280;12865;51.934;10.330;2023-05-23T00:41:50;98875.78;;;15.64;100.00
24762;BME280;12865;51.934;10.330;2023-05-23T00:44:36;98874.66;;;15.58;100.00
24762;BME280;12865;51.934;10.330;2023-05-23T00:47:22;98879.44;;;15.48;100.00
24762;BME280;12865;51.934;10.330;2023-05-23T00:50:10;98878.38;;;15.49;100.00
24762;BME280;12865;51.934;10.330;2023-05-23T00:52:57;98887.50;;;15.48;100.00
24762;BME280;12865;51.934;10.330;2023-05-23T00:55:44;98882.47;;;15.45;100.00
24762;BME280;12865;51.934;10.330;2023-05-23T00:58:30;98884.81;;;15.48;100.00
24762;BME280;12865;51.934;10.330;2023-05-23T01:01:17;98899.41;;;15.46;100.00
24762;BME280;12865;51.934;10.330;2023-05-23T01:04:03;98902.56;;;15.49;100.00
24762;BME280;12865;51.934;10.330;2023-05-23T01:06:49;98896.38;;;15.49;100.00
24762;BME280;12865;51.934;10.330;2023-05-23T01:09:35;98899.25;;;15.47;100.00
24762;BME280;12865;51.934;10.330;2023-05-23T01:12:57;98893.19;;;15.53;100.00
24762;BME280;12865;51.934;10.330;2023-05-23T01:16:16;98890.97;;;15.57;100.00
24762;BME280;12865;51.934;10.330;2023-05-23T01:28:45;98890.56;;;15.68;100.00
24762;BME280;12865;51.934;10.330;2023-05-23T01:31:32;98891.75;;;15.65;100.00
24762;BME280;12865;51.934;10.330;2023-05-23T01:34:20;98897.13;;;15.65;100.00
24762;BME280;12865;51.934;10.330;2023-05-23T01:37:10;98895.75;;;15.69;100.00
24762;BME280;12865;51.934;10.330;2023-05-23T01:39:56;98897.06;;;15.74;100.00
24762;BME280;12865;51.934;10.330;2023-05-23T01:42:42;98894.38;;;15.74;100.00
24762;BME280;12865;51.934;10.330;2023-05-23T01:45:28;98893.34;;;15.75;100.00
24762;BME280;12865;51.934;10.330;2023-05-23T01:48:15;98888.25;;;15.80;100.00
24762;BME280;12865;51.934;10.330;2023-05-23T01:51:01;98887.50;;;15.71;100.00
24762;BME280;12865;51.934;10.330;2023-05-23T01:53:49;98882.50;;;15.68;100.00
24762;BME280;12865;51.934;10.330;2023-05-23T01:56:35;98879.25;;;15.73;100.00
24762;BME280;12865;51.934;10.330;2023-05-23T01:59:20;98889.16;;;15.72;100.00
24762;BME280;12865;51.934;10.330;2023-05-23T02:02:06;98880.59;;;15.77;100.00
24762;BME280;12865;51.934;10.330;2023-05-23T02:04:52;98878.53;;;15.79;100.00
24762;BME280;12865;51.934;10.330;2023-05-23T02:07:38;98876.50;;;15.81;100.00
24762;BME280;12865;51.934;10.330;2023-05-23T02:10:24;98877.34;;;15.81;100.00
24762;BME280;12865;51.934;10.330;2023-05-23T02:13:10;98877.16;;;15.83;100.00
24762;BME280;12865;51.934;10.330;2023-05-23T02:15:59;98880.69;;;15.83;100.00
24762;BME280;12865;51.934;10.330;2023-05-23T02:18:46;98885.03;;;15.84;100.00
24762;BME280;12865;51.934;10.330;2023-05-23T02:21:32;98889.66;;;15.76;100.00
24762;BME280;12865;51.934;10.330;2023-05-23T02:24:17;98888.56;;;15.85;100.00
24762;BME280;12865;51.934;10.330;2023-05-23T02:27:03;98895.97;;;15.83;100.00
24762;BME280;12865;51.934;10.330;2023-05-23T02:29:49;98894.97;;;15.84;100.00
24762;BME280;12865;51.934;10.330;2023-05-23T02:32:34;98891.63;;;15.82;100.00
24762;BME280;12865;51.934;10.330;2023-05-23T02:35:21;98890.78;;;15.81;100.00
24762;BME280;12865;51.934;10.330;2023-05-23T02:38:07;98890.59;;;15.83;100.00
24762;BME280;12865;51.934;10.330;2023-05-23T02:40:53;98898.19;;;15.79;100.00
24762;BME280;12865;51.934;10.330;2023-05-23T02:43:38;98908.41;;;15.84;100.00
24762;BME280;12865;51.934;10.330;2023-05-23T02:46:24;98906.66;;;15.91;100.00
24762;BME280;12865;51.934;10.330;2023-05-23T02:49:10;98905.34;;;15.87;100.00
24762;BME280;12865;51.934;10.330;2023-05-23T02:51:56;98919.22;;;15.76;100.00
24762;BME280;12865;51.934;10.330;2023-05-23T02:54:41;98930.09;;;15.51;100.00
24762;BME280;12865;51.934;10.330;2023-05-23T02:57:27;98927.22;;;15.30;100.00
24762;BME280;12865;51.934;10.330;2023-05-23T03:00:14;98934.69;;;15.20;100.00
24762;BME280;12865;51.934;10.330;2023-05-23T03:03:00;98940.28;;;15.02;100.00
24762;BME280;12865;51.934;10.330;2023-05-23T03:05:47;98943.53;;;14.89;100.00
24762;BME280;12865;51.934;10.330;2023-05-23T03:08:33;98946.06;;;14.91;100.00
24762;BME280;12865;51.934;10.330;2023-05-23T03:11:18;98951.91;;;14.86;100.00
24762;BME280;12865;51.934;10.330;2023-05-23T03:14:04;98950.75;;;14.89;100.00
24762;BME280;12865;51.934;10.330;2023-05-23T03:16:50;98958.97;;;14.87;100.00
24762;BME280;12865;51.934;10.330;2023-05-23T03:19:36;98958.09;;;14.95;100.00
24762;BME280;12865;51.934;10.330;2023-05-23T03:22:21;98965.88;;;14.82;100.00
24762;BME280;12865;51.934;10.330;2023-05-23T03:25:07;98968.06;;;14.78;100.00
24762;BME280;12865;51.934;10.330;2023-05-23T03:27:53;98970.78;;;14.70;100.00
24762;BME280;12865;51.934;10.330;2023-05-23T03:30:39;98970.41;;;14.73;100.00
24762;BME280;12865;51.934;10.330;2023-05-23T03:33:24;98972.81;;;14.60;100.00
24762;BME280;12865;51.934;10.330;2023-05-23T03:36:10;98978.19;;;14.52;100.00
24762;BME280;12865;51.934;10.330;2023-05-23T03:38:56;98977.69;;;14.57;100.00
24762;BME280;12865;51.934;10.330;2023-05-23T03:41:41;98976.50;;;14.59;100.00
24762;BME280;12865;51.934;10.330;2023-05-23T03:44:27;98976.00;;;14.56;100.00
24762;BME280;12865;51.934;10.330;2023-05-23T03:47:13;98977.50;;;14.58;100.00
24762;BME280;12865;51.934;10.330;2023-05-23T03:49:58;98976.69;;;14.49;100.00
24762;BME280;12865;51.934;10.330;2023-05-23T03:52:44;98961.09;;;14.53;100.00
24762;BME280;12865;51.934;10.330;2023-05-23T03:55:30;98968.63;;;14.58;100.00
24762;BME280;12865;51.934;10.330;2023-05-23T03:58:16;98971.50;;;14.56;100.00
24762;BME280;12865;51.934;10.330;2023-05-23T04:01:02;98973.00;;;14.50;100.00
24762;BME280;12865;51.934;10.330;2023-05-23T04:03:49;98968.97;;;14.46;100.00
24762;BME280;12865;51.934;10.330;2023-05-23T04:06:34;98971.81;;;14.37;100.00
24762;BME280;12865;51.934;10.330;2023-05-23T04:09:20;98979.03;;;14.52;100.00
24762;BME280;12865;51.934;10.330;2023-05-23T04:12:06;98980.88;;;14.44;100.00
24762;BME280;12865;51.934;10.330;2023-05-23T04:14:53;98981.56;;;14.46;100.00
24762;BME280;12865;51.934;10.330;2023-05-23T04:17:40;98987.91;;;14.45;100.00
24762;BME280;12865;51.934;10.330;2023-05-23T04:20:25;98980.06;;;14.43;100.00
24762;BME280;12865;51.934;10.330;2023-05-23T04:23:11;98978.38;;;14.50;100.00
24762;BME280;12865;51.934;10.330;2023-05-23T04:25:57;98979.19;;;14.51;100.00
24762;BME280;12865;51.934;10.330;2023-05-23T04:28:42;98989.44;;;14.56;100.00
24762;BME280;12865;51.934;10.330;2023-05-23T04:31:30;98985.53;;;14.58;100.00
24762;BME280;12865;51.934;10.330;2023-05-23T04:34:18;98986.59;;;14.49;100.00
24762;BME280;12865;51.934;10.330;2023-05-23T04:37:06;98986.94;;;14.38;100.00
24762;BME280;12865;51.934;10.330;2023-05-23T04:39:53;98993.47;;;14.43;100.00
24762;BME280;12865;51.934;10.330;2023-05-23T04:42:39;98985.91;;;14.47;100.00
24762;BME280;12865;51.934;10.330;2023-05-23T04:45:26;98983.06;;;14.40;100.00
24762;BME280;12865;51.934;10.330;2023-05-23T04:48:13;98990.97;;;14.42;100.00
24762;BME280;12865;51.934;10.330;2023-05-23T04:51:02;98987.44;;;14.49;100.00
24762;BME280;12865;51.934;10.330;2023-05-23T04:53:50;98975.50;;;14.44;100.00
24762;BME280;12865;51.934;10.330;2023-05-23T04:56:36;98978.72;;;14.47;100.00
24762;BME280;12865;51.934;10.330;2023-05-23T04:59:22;98975.50;;;14.44;100.00
24762;BME280;12865;51.934;10.330;2023-05-23T05:02:08;98981.56;;;14.46;100.00
24762;BME280;12865;51.934;10.330;2023-05-23T05:04:54;98980.22;;;14.50;100.00
24762;BME280;12865;51.934;10.330;2023-05-23T05:07:39;98982.72;;;14.51;100.00
24762;BME280;12865;51.934;10.330;2023-05-23T05:10:25;98982.53;;;14.53;100.00
24762;BME280;12865;51.934;10.330;2023-05-23T05:13:11;98977.16;;;14.61;100.00
24762;BME280;12865;51.934;10.330;2023-05-23T05:15:57;98974.47;;;14.61;100.00
24762;BME280;12865;51.934;10.330;2023-05-23T05:18:43;98988.06;;;14.60;100.00
24762;BME280;12865;51.934;10.330;2023-05-23T05:21:28;98986.06;;;14.45;100.00
24762;BME280;12865;51.934;10.330;2023-05-23T05:24:15;98982.22;;;14.56;100.00
24762;BME280;12865;51.934;10.330;2023-05-23T05:27:02;98989.75;;;14.52;100.00
24762;BME280;12865;51.934;10.330;2023-05-23T05:29:48;98987.75;;;14.46;100.00
24762;BME280;12865;51.934;10.330;2023-05-23T05:32:34;98982.22;;;14.48;100.00
24762;BME280;12865;51.934;10.330;2023-05-23T05:35:20;98984.06;;;14.39;100.00
24762;BME280;12865;51.934;10.330;2023-05-23T05:38:06;98978.38;;;14.42;100.00
24762;BME280;12865;51.934;10.330;2023-05-23T05:40:52;98983.56;;;14.44;100.00
24762;BME280;12865;51.934;10.330;2023-05-23T05:43:38;98976.34;;;14.44;100.00
24762;BME280;12865;51.934;10.330;2023-05-23T05:46:24;98986.59;;;14.57;100.00
24762;BME280;12865;51.934;10.330;2023-05-23T05:49:09;98990.91;;;14.58;100.00
24762;BME280;12865;51.934;10.330;2023-05-23T05:51:55;98992.94;;;14.64;100.00
24762;BME280;12865;51.934;10.330;2023-05-23T05:54:41;98995.41;;;14.74;100.00
24762;BME280;12865;51.934;10.330;2023-05-23T05:57:27;98995.78;;;14.71;100.00
24762;BME280;12865;51.934;10.330;2023-05-23T06:00:13;98990.41;;;14.71;100.00
24762;BME280;12865;51.934;10.330;2023-05-23T06:03:00;98994.41;;;14.67;100.00
24762;BME280;12865;51.934;10.330;2023-05-23T06:05:45;98997.78;;;14.69;100.00
24762;BME280;12865;51.934;10.330;2023-05-23T06:08:31;98995.47;;;14.58;100.00
24762;BME280;12865;51.934;10.330;2023-05-23T06:11:17;99004.00;;;14.53;100.00
24762;BME280;12865;51.934;10.330;2023-05-23T06:14:03;99008.88;;;14.58;100.00
24762;BME280;12865;51.934;10.330;2023-05-23T06:16:49;99003.66;;;14.64;100.00
24762;BME280;12865;51.934;10.330;2023-05-23T06:19:35;98994.56;;;14.73;100.00
24762;BME280;12865;51.934;10.330;2023-05-23T06:22:21;98996.31;;;14.42;100.00
24762;BME280;12865;51.934;10.330;2023-05-23T06:25:07;98997.31;;;14.49;100.00
24762;BME280;12865;51.934;10.330;2023-05-23T06:27:53;98997.16;;;14.42;100.00
24762;BME280;12865;51.934;10.330;2023-05-23T06:30:39;98990.44;;;14.22;100.00
24762;BME280;12865;51.934;10.330;2023-05-23T06:33:25;98997.81;;;14.20;100.00
24762;BME280;12865;51.934;10.330;2023-05-23T06:36:11;98997.97;;;14.19;100.00
24762;BME280;12865;51.934;10.330;2023-05-23T06:38:57;98997.28;;;14.33;100.00
24762;BME280;12865;51.934;10.330;2023-05-23T06:41:42;98992.63;;;14.27;100.00
24762;BME280;12865;51.934;10.330;2023-05-23T06:44:28;98996.13;;;14.27;100.00
24762;BME280;12865;51.934;10.330;2023-05-23T06:47:14;99005.03;;;14.20;100.00
24762;BME280;12865;51.934;10.330;2023-05-23T06:50:00;99009.38;;;14.21;100.00
24762;BME280;12865;51.934;10.330;2023-05-23T06:52:46;99009.22;;;14.14;100.00
24762;BME280;12865;51.934;10.330;2023-05-23T06:55:32;99012.22;;;14.11;100.00
24762;BME280;12865;51.934;10.330;2023-05-23T06:58:21;99009.84;;;14.16;100.00
24762;BME280;12865;51.934;10.330;2023-05-23T07:01:06;98998.97;;;14.26;100.00
24762;BME280;12865;51.934;10.330;2023-05-23T07:03:52;99008.03;;;14.25;100.00
24762;BME280;12865;51.934;10.330;2023-05-23T07:06:38;98999.34;;;14.23;100.00
24762;BME280;12865;51.934;10.330;2023-05-23T07:09:24;98990.41;;;14.30;100.00
24762;BME280;12865;51.934;10.330;2023-05-23T07:12:10;99001.19;;;14.22;100.00
24762;BME280;12865;51.934;10.330;2023-05-23T07:14:55;99002.66;;;14.16;100.00
24762;BME280;12865;51.934;10.330;2023-05-23T07:17:41;99004.69;;;14.14;100.00
24762;BME280;12865;51.934;10.330;2023-05-23T07:20:27;99008.69;;;14.10;100.00
24762;BME280;12865;51.934;10.330;2023-05-23T07:23:12;99003.50;;;14.09;100.00
24762;BME280;12865;51.934;10.330;2023-05-23T07:25:58;99000.50;;;14.20;100.00
24762;BME280;12865;51.934;10.330;2023-05-23T07:28:44;99006.38;;;14.07;100.00
24762;BME280;12865;51.934;10.330;2023-05-23T07:31:30;99008.84;;;14.09;100.00
24762;BME280;12865;51.934;10.330;2023-05-23T07:34:16;99012.72;;;14.14;100.00
24762;BME280;12865;51.934;10.330;2023-05-23T07:37:01;99005.38;;;14.08;100.00
24762;BME280;12865;51.934;10.330;2023-05-23T07:39:47;99006.38;;;14.07;100.00
24762;BME280;12865;51.934;10.330;2023-05-23T07:42:32;99008.38;;;14.22;100.00
24762;BME280;12865;51.934;10.330;2023-05-23T07:45:18;99001.66;;;14.09;100.00
24762;BME280;12865;51.934;10.330;2023-05-23T07:48:04;99007.84;;;14.10;100.00
24762;BME280;12865;51.934;10.330;2023-05-23T07:50:50;99009.03;;;14.07;100.00
24762;BME280;12865;51.934;10.330;2023-05-23T07:53:39;99001.16;;;14.14;100.00
24762;BME280;12865;51.934;10.330;2023-05-23T07:56:25;99012.91;;;14.13;100.00
24762;BME280;12865;51.934;10.330;2023-05-23T07:59:11;99013.41;;;14.08;100.00
24762;BME280;12865;51.934;10.330;2023-05-23T08:04:25;99016.06;;;14.16;100.00
24762;BME280;12865;51.934;10.330;2023-05-23T08:07:11;99021.78;;;14.13;100.00
24762;BME280;12865;51.934;10.330;2023-05-23T08:09:57;99023.44;;;14.06;100.00
24762;BME280;12865;51.934;10.330;2023-05-23T08:12:42;99028.97;;;14.13;100.00
24762;BME280;12865;51.934;10.330;2023-05-23T08:15:28;99039.53;;;14.06;100.00
24762;BME280;12865;51.934;10.330;2023-05-23T08:18:14;99031.47;;;13.98;100.00
24762;BME280;12865;51.934;10.330;2023-05-23T08:21:01;99043.91;;;14.07;100.00
24762;BME280;12865;51.934;10.330;2023-05-23T08:23:48;99045.56;;;14.08;100.00
24762;BME280;12865;51.934;10.330;2023-05-23T08:26:34;99045.88;;;13.97;100.00
24762;BME280;12865;51.934;10.330;2023-05-23T08:29:20;99059.25;;;13.81;100.00
24762;BME280;12865;51.934;10.330;2023-05-23T08:32:06;99058.94;;;13.84;100.00
24762;BME280;12865;51.934;10.330;2023-05-23T08:34:52;99067.47;;;13.80;100.00
24762;BME280;12865;51.934;10.330;2023-05-23T08:37:38;99074.63;;;13.71;100.00
24762;BME280;12865;51.934;10.330;2023-05-23T08:40:24;99073.28;;;13.67;100.00
24762;BME280;12865;51.934;10.330;2023-05-23T08:43:11;99070.59;;;13.59;100.00
24762;BME280;12865;51.934;10.330;2023-05-23T08:45:57;99077.25;;;13.55;100.00
24762;BME280;12865;51.934;10.330;2023-05-23T08:48:50;99082.97;;;13.52;100.00
24762;BME280;12865;51.934;10.330;2023-05-23T08:51:37;99086.94;;;13.48;100.00
24762;BME280;12865;51.934;10.330;2023-05-23T08:54:23;99093.69;;;13.60;100.00
24762;BME280;12865;51.934;10.330;2023-05-23T08:57:09;99099.34;;;13.49;100.00
24762;BME280;12865;51.934;10.330;2023-05-23T08:59:55;99094.00;;;13.57;100.00
24762;BME280;12865;51.934;10.330;2023-05-23T09:02:42;99103.88;;;13.56;100.00
24762;BME280;12865;51.934;10.330;2023-05-23T09:05:29;99101.72;;;13.52;100.00
24762;BME280;12865;51.934;10.330;2023-05-23T09:08:15;99101.53;;;13.53;100.00
24762;BME280;12865;51.934;10.330;2023-05-23T09:11:02;99112.56;;;13.50;100.00
24762;BME280;12865;51.934;10.330;2023-05-23T09:13:48;99117.09;;;13.50;100.00
24762;BME280;12865;51.934;10.330;2023-05-23T09:16:34;99111.78;;;13.58;100.00
24762;BME280;12865;51.934;10.330;2023-05-23T09:19:20;99116.75;;;13.53;100.00
24762;BME280;12865;51.934;10.330;2023-05-23T09:22:06;99111.94;;;13.56;100.00
24762;BME280;12865;51.934;10.330;2023-05-23T09:24:53;99122.94;;;13.53;100.00
24762;BME280;12865;51.934;10.330;2023-05-23T09:27:39;99127.00;;;13.57;100.00
24762;BME280;12865;51.934;10.330;2023-05-23T09:30:25;99137.13;;;13.46;100.00
24762;BME280;12865;51.934;10.330;2023-05-23T09:33:13;99142.19;;;13.49;100.00
24762;BME280;12865;51.934;10.330;2023-05-23T09:35:59;99147.16;;;13.35;100.00
24762;BME280;12865;51.934;10.330;2023-05-23T09:38:46;99144.47;;;13.35;100.00
24762;BME280;12865;51.934;10.330;2023-05-23T09:41:33;99145.06;;;13.21;100.00
24762;BME280;12865;51.934;10.330;2023-05-23T09:44:22;99146.53;;;13.16;100.00
24762;BME280;12865;51.934;10.330;2023-05-23T09:47:08;99143.63;;;13.09;100.00
24762;BME280;12865;51.934;10.330;2023-05-23T09:49:54;99152.56;;;13.00;100.00
24762;BME280;12865;51.934;10.330;2023-05-23T09:52:39;99163.50;;;13.07;100.00
24762;BME280;12865;51.934;10.330;2023-05-23T09:55:25;99165.13;;;12.99;100.00
24762;BME280;12865;51.934;10.330;2023-05-23T09:58:11;99168.38;;;13.11;100.00
24762;BME280;12865;51.934;10.330;2023-05-23T10:00:59;99173.69;;;13.03;100.00
24762;BME280;12865;51.934;10.330;2023-05-23T10:03:49;99174.41;;;12.87;100.00
24762;BME280;12865;51.934;10.330;2023-05-23T10:06:46;99168.00;;;12.80;100.00
24762;BME280;12865;51.934;10.330;2023-05-23T10:09:36;99172.03;;;12.84;100.00
24762;BME280;12865;51.934;10.330;2023-05-23T10:15:17;99188.41;;;12.81;100.00
24762;BME280;12865;51.934;10.330;2023-05-23T10:18:11;99186.25;;;12.85;100.00
24762;BME280;12865;51.934;10.330;2023-05-23T10:21:06;99188.69;;;12.78;100.00
24762;BME280;12865;51.934;10.330;2023-05-23T10:23:53;99190.94;;;12.65;100.00
24762;BME280;12865;51.934;10.330;2023-05-23T10:26:40;99196.78;;;12.69;100.00
24762;BME280;12865;51.934;10.330;2023-05-23T10:29:26;99194.44;;;12.66;100.00
24762;BME280;12865;51.934;10.330;2023-05-23T10:32:14;99207.88;;;12.56;100.00
24762;BME280;12865;51.934;10.330;2023-05-23T10:35:18;99215.16;;;12.46;100.00
24762;BME280;12865;51.934;10.330;2023-05-23T10:38:18;99223.47;;;12.43;100.00
24762;BME280;12865;51.934;10.330;2023-05-23T10:41:12;99221.25;;;12.38;100.00
24762;BME280;12865;51.934;10.330;2023-05-23T10:47:00;99244.53;;;12.01;100.00
24762;BME280;12865;51.934;10.330;2023-05-23T10:49:51;99249.09;;;11.91;100.00
24762;BME280;12865;51.934;10.330;2023-05-23T10:52:40;99268.09;;;11.88;100.00
24762;BME280;12865;51.934;10.330;2023-05-23T10:55:30;99267.56;;;11.65;100.00
24762;BME280;12865;51.934;10.330;2023-05-23T10:58:19;99257.84;;;11.64;100.00
24762;BME280;12865;51.934;10.330;2023-05-23T11:01:08;99274.72;;;11.64;100.00
24762;BME280;12865;51.934;10.330;2023-05-23T11:03:54;99271.66;;;11.59;100.00
24762;BME280;12865;51.934;10.330;2023-05-23T11:06:41;99272.75;;;11.66;100.00
24762;BME280;12865;51.934;10.330;2023-05-23T11:09:28;99261.38;;;11.64;100.00
24762;BME280;12865;51.934;10.330;2023-05-23T11:12:14;99266.72;;;11.64;100.00
24762;BME280;12865;51.934;10.330;2023-05-23T11:15:00;99280.50;;;11.69;100.00
24762;BME280;12865;51.934;10.330;2023-05-23T11:17:53;99273.16;;;11.71;100.00
24762;BME280;12865;51.934;10.330;2023-05-23T11:20:40;99280.94;;;11.74;100.00
24762;BME280;12865;51.934;10.330;2023-05-23T11:23:39;99282.16;;;11.80;100.00
24762;BME280;12865;51.934;10.330;2023-05-23T11:26:30;99290.44;;;11.87;100.00
24762;BME280;12865;51.934;10.330;2023-05-23T11:29:16;99290.56;;;11.85;100.00
24762;BME280;12865;51.934;10.330;2023-05-23T11:32:12;99293.97;;;11.77;100.00
24762;BME280;12865;51.934;10.330;2023-05-23T11:34:59;99290.47;;;11.67;100.00
24762;BME280;12865;51.934;10.330;2023-05-23T11:37:45;99289.88;;;11.73;100.00
24762;BME280;12865;51.934;10.330;2023-05-23T11:40:32;99287.09;;;11.65;100.00
24762;BME280;12865;51.934;10.330;2023-05-23T11:43:18;99295.41;;;11.62;100.00
24762;BME280;12865;51.934;10.330;2023-05-23T11:46:07;99302.31;;;11.55;100.00
24762;BME280;12865;51.934;10.330;2023-05-23T11:48:53;99313.00;;;11.55;100.00
24762;BME280;12865;51.934;10.330;2023-05-23T11:51:39;99315.22;;;11.50;100.00
24762;BME280;12865;51.934;10.330;2023-05-23T11:54:25;99317.63;;;11.53;100.00
24762;BME280;12865;51.934;10.330;2023-05-23T11:57:12;99308.06;;;11.51;100.00
24762;BME280;12865;51.934;10.330;2023-05-23T11:59:58;99300.06;;;11.60;100.00
24762;BME280;12865;51.934;10.330;2023-05-23T12:02:44;99300.75;;;11.62;100.00
24762;BME280;12865;51.934;10.330;2023-05-23T12:05:32;99308.50;;;11.56;100.00
24762;BME280;12865;51.934;10.330;2023-05-23T12:08:17;99316.22;;;11.59;100.00
24762;BME280;12865;51.934;10.330;2023-05-23T12:11:03;99317.63;;;11.53;100.00
24762;BME280;12865;51.934;10.330;2023-05-23T12:13:51;99326.94;;;11.49;100.00
24762;BME280;12865;51.934;10.330;2023-05-23T12:16:37;99323.81;;;11.44;100.00
24762;BME280;12865;51.934;10.330;2023-05-23T12:19:23;99330.72;;;11.47;100.00
24762;BME280;12865;51.934;10.330;2023-05-23T12:22:08;99334.63;;;11.52;100.00
24762;BME280;12865;51.934;10.330;2023-05-23T12:24:55;99322.69;;;11.47;100.00
24762;BME280;12865;51.934;10.330;2023-05-23T12:27:41;99336.75;;;11.49;100.00
24762;BME280;12865;51.934;10.330;2023-05-23T12:30:39;99334.22;;;11.37;100.00
24762;BME280;12865;51.934;10.330;2023-05-23T12:33:25;99346.19;;;11.24;100.00
24762;BME280;12865;51.934;10.330;2023-05-23T12:36:11;99348.28;;;11.30;100.00
24762;BME280;12865;51.934;10.330;2023-05-23T12:39:01;99353.19;;;11.44;100.00
24762;BME280;12865;51.934;10.330;2023-05-23T12:41:47;99351.22;;;11.46;100.00
24762;BME280;12865;51.934;10.330;2023-05-23T12:44:33;99344.50;;;11.42;100.00
24762;BME280;12865;51.934;10.330;2023-05-23T12:47:19;99362.75;;;11.37;100.00
24762;BME280;12865;51.934;10.330;2023-05-23T12:50:05;99365.97;;;11.31;100.00
24762;BME280;12865;51.934;10.330;2023-05-23T12:52:51;99358.53;;;11.25;100.00
24762;BME280;12865;51.934;10.330;2023-05-23T12:55:37;99363.59;;;11.28;100.00
24762;BME280;12865;51.934;10.330;2023-05-23T12:58:22;99378.50;;;11.21;100.00
24762;BME280;12865;51.934;10.330;2023-05-23T13:01:08;99379.31;;;11.12;100.00
24762;BME280;12865;51.934;10.330;2023-05-23T13:03:55;99391.66;;;11.03;100.00
24762;BME280;12865;51.934;10.330;2023-05-23T13:06:41;99402.06;;;11.16;100.00
24762;BME280;12865;51.934;10.330;2023-05-23T13:09:26;99397.72;;;11.05;100.00
24762;BME280;12865;51.934;10.330;2023-05-23T13:12:12;99388.84;;;10.95;100.00
24762;BME280;12865;51.934;10.330;2023-05-23T13:14:58;99400.34;;;10.95;100.00
24762;BME280;12865;51.934;10.330;2023-05-23T13:17:43;99404.44;;;10.90;100.00
24762;BME280;12865;51.934;10.330;2023-05-23T13:20:31;99404.56;;;10.88;100.00
24762;BME280;12865;51.934;10.330;2023-05-23T13:23:16;99404.19;;;11.22;100.00
24762;BME280;12865;51.934;10.330;2023-05-23T13:26:02;99408.41;;;11.34;100.00
24762;BME280;12865;51.934;10.330;2023-05-23T13:28:48;99407.69;;;11.51;100.00
24762;BME280;12865;51.934;10.330;2023-05-23T13:31:33;99403.22;;;11.80;100.00
24762;BME280;12865;51.934;10.330;2023-05-23T13:34:19;99412.22;;;11.79;100.00
24762;BME280;12865;51.934;10.330;2023-05-23T13:37:05;99420.78;;;11.83;100.00
24762;BME280;12865;51.934;10.330;2023-05-23T13:39:50;99418.94;;;11.64;100.00
24762;BME280;12865;51.934;10.330;2023-05-23T13:42:36;99415.28;;;11.46;100.00
24762;BME280;12865;51.934;10.330;2023-05-23T13:45:22;99418.53;;;11.59;100.00
24762;BME280;12865;51.934;10.330;2023-05-23T13:48:07;99415.03;;;11.49;100.00
24762;BME280;12865;51.934;10.330;2023-05-23T13:50:54;99419.50;;;11.58;100.00
24762;BME280;12865;51.934;10.330;2023-05-23T13:53:40;99429.22;;;11.69;100.00
24762;BME280;12865;51.934;10.330;2023-05-23T13:56:26;99420.94;;;11.82;100.00
24762;BME280;12865;51.934;10.330;2023-05-23T13:59:12;99434.97;;;11.93;100.00
24762;BME280;12865;51.934;10.330;2023-05-23T14:01:58;99430.50;;;11.84;100.00
24762;BME280;12865;51.934;10.330;2023-05-23T14:04:43;99434.69;;;11.87;100.00
24762;BME280;12865;51.934;10.330;2023-05-23T14:07:29;99432.88;;;11.97;100.00
24762;BME280;12865;51.934;10.330;2023-05-23T14:10:15;99432.81;;;12.06;100.00
24762;BME280;12865;51.934;10.330;2023-05-23T14:13:02;99434.66;;;12.06;100.00
24762;BME280;12865;51.934;10.330;2023-05-23T14:15:48;99430.41;;;12.23;100.00
24762;BME280;12865;51.934;10.330;2023-05-23T14:18:34;99433.59;;;12.36;100.00
24762;BME280;12865;51.934;10.330;2023-05-23T14:21:20;99436.53;;;12.42;100.00
24762;BME280;12865;51.934;10.330;2023-05-23T14:24:06;99445.50;;;12.51;100.00
24762;BME280;12865;51.934;10.330;2023-05-23T14:26:51;99436.97;;;12.47;100.00
24762;BME280;12865;51.934;10.330;2023-05-23T14:29:37;99439.44;;;12.58;100.00
24762;BME280;12865;51.934;10.330;2023-05-23T14:32:23;99440.31;;;12.77;100.00
24762;BME280;12865;51.934;10.330;2023-05-23T14:35:10;99434.94;;;12.86;100.00
24762;BME280;12865;51.934;10.330;2023-05-23T14:37:56;99434.91;;;12.96;100.00